Time;durP1;ratioP1;P1;durP2;ratioP2;P2;SDS_P1;SDS_P2;PMS_P1;PMS_P2;Temp;Humidity;BMP_temperature;BMP_pressure;BME280_temperature;BME280_humidity;BME280_pressure;Samples;Min_cycle;Max_cycle;Signal;HPM_P1;HPM_P2
2022/01/24 00:00:23;;;;;;;43.85;22.95;;;6.50;99.90;;;;;;5093339;28;20024;-72
2022/01/24 00:02:49;;;;;;;40.20;22.05;;;6.50;99.90;;;;;;5093633;28;20040;-72
2022/01/24 00:05:17;;;;;;;38.58;22.08;;;6.50;99.90;;;;;;5091825;28;20024;-72
2022/01/24 00:07:43;;;;;;;47.40;24.20;;;6.50;99.90;;;;;;5092043;28;20059;-72
2022/01/24 00:10:13;;;;;;;45.03;22.42;;;6.50;99.90;;;;;;5091508;28;20028;-72
2022/01/24 00:17:42;;;;;;;40.40;22.02;;;6.40;99.90;;;;;;5093022;28;20024;-72
2022/01/24 00:28:22;;;;;;;49.47;25.30;;;6.40;99.90;;;;;;5092217;28;20035;-73
2022/01/24 00:30:48;;;;;;;49.33;25.48;;;6.40;99.90;;;;;;5092446;28;20020;-73
2022/01/24 00:33:15;;;;;;;50.92;26.00;;;6.40;99.90;;;;;;5091083;28;20144;-73
2022/01/24 00:35:40;;;;;;;48.15;24.42;;;6.40;99.90;;;;;;5092140;28;20032;-73
2022/01/24 00:38:06;;;;;;;49.40;25.48;;;6.40;99.90;;;;;;5092475;28;20535;-73
2022/01/24 00:40:36;;;;;;;54.38;27.40;;;6.30;99.90;;;;;;5092067;28;20020;-72
2022/01/24 00:43:05;;;;;;;47.15;22.58;;;6.30;99.90;;;;;;5092609;28;20088;-72
2022/01/24 00:56:12;;;;;;;47.42;23.42;;;6.30;99.90;;;;;;5092136;28;20024;-74
2022/01/24 00:58:38;;;;;;;52.10;25.33;;;6.20;99.90;;;;;;5092208;28;20020;-74
2022/01/24 01:01:05;;;;;;;49.05;26.33;;;6.20;99.90;;;;;;5091167;28;20461;-74
2022/01/24 01:03:30;;;;;;;52.17;25.35;;;6.20;99.90;;;;;;5092310;28;20032;-73
2022/01/24 01:19:05;;;;;;;51.78;26.77;;;6.20;99.90;;;;;;5091764;28;20119;-72
2022/01/24 01:21:30;;;;;;;44.85;25.02;;;6.20;99.90;;;;;;5092381;28;20076;-74
2022/01/24 01:23:58;;;;;;;48.97;25.40;;;6.20;99.90;;;;;;5095483;28;20135;-73
2022/01/24 01:29:14;;;;;;;54.33;26.15;;;6.20;99.90;;;;;;5095286;28;20036;-74
2022/01/24 01:37:05;;;;;;;53.00;26.42;;;6.20;99.90;;;;;;5094967;28;20012;-72
2022/01/24 01:55:38;;;;;;;53.47;26.65;;;6.20;99.90;;;;;;5095553;28;20024;-73
2022/01/24 01:58:09;;;;;;;51.67;26.05;;;6.10;99.90;;;;;;5093853;28;20500;-74
2022/01/24 02:00:37;;;;;;;53.97;26.40;;;6.10;99.90;;;;;;5095006;28;20113;-74
2022/01/24 02:03:03;;;;;;;59.05;26.33;;;6.10;99.90;;;;;;5094313;28;20028;-74
2022/01/24 02:05:29;;;;;;;49.90;26.67;;;6.10;99.90;;;;;;5093848;28;20031;-73
2022/01/24 02:07:54;;;;;;;58.50;28.27;;;6.10;99.90;;;;;;5095344;28;20097;-73
2022/01/24 02:10:22;;;;;;;53.75;26.83;;;6.10;99.90;;;;;;5094693;28;20017;-73
2022/01/24 02:12:51;;;;;;;58.53;26.30;;;6.10;99.90;;;;;;5094156;28;20091;-74
2022/01/24 02:15:28;;;;;;;53.10;27.60;;;6.10;99.90;;;;;;5095835;28;20034;-74
2022/01/24 02:18:08;;;;;;;53.63;28.13;;;6.10;99.90;;;;;;5095102;28;20055;-73
2022/01/24 02:23:37;;;;;;;49.40;26.23;;;6.10;99.90;;;;;;5096456;28;20043;-74
2022/01/24 02:26:06;;;;;;;56.55;27.10;;;6.00;99.90;;;;;;5095022;28;20092;-74
2022/01/24 02:28:46;;;;;;;61.05;28.55;;;6.10;99.90;;;;;;5094440;28;20399;-74
2022/01/24 02:33:55;;;;;;;54.78;27.35;;;6.00;99.90;;;;;;5093659;28;20039;-73
2022/01/24 02:36:23;;;;;;;56.60;26.80;;;6.00;99.90;;;;;;5094226;28;20472;-74
2022/01/24 02:50:00;;;;;;;54.95;26.45;;;6.00;99.90;;;;;;5093920;28;20039;-73
2022/01/24 02:52:27;;;;;;;52.05;26.27;;;6.00;99.90;;;;;;5093757;28;20032;-73
2022/01/24 02:54:53;;;;;;;59.65;27.92;;;6.00;99.90;;;;;;5093089;28;20129;-74
2022/01/24 02:57:20;;;;;;;52.47;27.15;;;6.00;99.90;;;;;;5093088;28;20050;-73
2022/01/24 02:59:46;;;;;;;58.05;26.85;;;6.00;99.90;;;;;;5092906;28;20028;-73
2022/01/24 03:02:12;;;;;;;51.08;27.25;;;6.00;99.90;;;;;;5093173;28;20035;-73
2022/01/24 03:04:37;;;;;;;57.80;28.30;;;6.00;99.90;;;;;;5093805;28;20388;-73
2022/01/24 03:07:03;;;;;;;63.83;28.40;;;6.00;99.90;;;;;;5092251;28;20740;-73
2022/01/24 03:09:29;;;;;;;54.85;28.77;;;6.00;99.90;;;;;;5093316;28;20391;-73
2022/01/24 03:14:33;;;;;;;57.28;27.70;;;5.90;99.90;;;;;;5092822;28;20073;-73
2022/01/24 03:16:59;;;;;;;60.65;30.80;;;5.90;99.90;;;;;;5093527;28;20031;-72
2022/01/24 03:19:33;;;;;;;58.08;28.23;;;5.90;99.90;;;;;;5093184;28;20024;-73
2022/01/24 03:21:59;;;;;;;54.80;27.67;;;5.90;99.90;;;;;;5092458;28;20023;-72
2022/01/24 03:24:25;;;;;;;54.40;29.17;;;5.90;99.90;;;;;;5092854;28;20055;-73
2022/01/24 03:26:50;;;;;;;53.15;28.50;;;5.90;99.90;;;;;;5093549;28;20062;-73
2022/01/24 03:29:16;;;;;;;51.05;26.27;;;5.90;99.90;;;;;;5092684;28;20539;-72
2022/01/24 03:31:43;;;;;;;55.63;27.15;;;5.90;99.90;;;;;;5093666;28;20020;-73
2022/01/24 03:34:09;;;;;;;52.15;27.05;;;5.80;99.90;;;;;;5093086;28;20038;-73
2022/01/24 03:36:35;;;;;;;50.72;28.55;;;5.90;99.90;;;;;;5092375;28;20024;-73
2022/01/24 03:39:01;;;;;;;53.72;27.38;;;5.90;99.90;;;;;;5092680;28;20441;-72
2022/01/24 03:41:26;;;;;;;45.78;24.88;;;5.90;99.90;;;;;;5092305;28;20039;-73
2022/01/24 03:43:52;;;;;;;48.75;26.33;;;5.80;99.90;;;;;;5092495;28;20089;-72
2022/01/24 03:48:50;;;;;;;54.95;26.05;;;5.80;99.90;;;;;;5092776;28;20023;-73
2022/01/24 03:51:16;;;;;;;54.05;28.13;;;5.80;99.90;;;;;;5091843;28;20024;-73
2022/01/24 03:53:43;;;;;;;51.25;26.40;;;5.80;99.90;;;;;;5092700;28;20442;-72
2022/01/24 03:56:09;;;;;;;56.53;28.98;;;5.80;99.90;;;;;;5091221;28;20024;-73
2022/01/24 03:58:35;;;;;;;56.78;28.77;;;5.90;99.90;;;;;;5092942;28;20046;-73
2022/01/24 04:01:03;;;;;;;57.70;29.83;;;5.80;99.90;;;;;;5092490;28;20020;-73
2022/01/24 04:03:29;;;;;;;57.63;31.67;;;5.80;99.90;;;;;;5092081;28;20036;-73
2022/01/24 04:05:54;;;;;;;64.57;31.95;;;5.80;99.90;;;;;;5092710;28;20081;-72
2022/01/24 04:08:23;;;;;;;66.55;33.67;;;5.80;99.90;;;;;;5092057;28;20048;-72
2022/01/24 04:10:53;;;;;;;63.50;32.75;;;5.80;99.90;;;;;;5092687;28;20528;-72
2022/01/24 04:13:35;;;;;;;68.72;33.95;;;5.80;99.90;;;;;;5093651;28;20455;-72
2022/01/24 04:16:26;;;;;;;65.13;34.40;;;5.80;99.90;;;;;;5092797;28;20031;-72
2022/01/24 04:21:29;;;;;;;62.17;31.63;;;5.80;99.90;;;;;;5092385;28;20464;-73
2022/01/24 04:24:14;;;;;;;63.42;32.63;;;5.80;99.90;;;;;;5092766;28;20101;-73
2022/01/24 04:26:42;;;;;;;68.20;33.90;;;5.80;99.90;;;;;;5092375;28;20067;-73
2022/01/24 04:29:08;;;;;;;62.50;31.98;;;5.80;99.90;;;;;;5092117;28;20039;-73
2022/01/24 04:31:35;;;;;;;66.70;32.50;;;5.80;99.90;;;;;;5091973;28;20016;-73
2022/01/24 04:34:00;;;;;;;67.35;35.63;;;5.70;99.90;;;;;;5092695;28;20035;-73
2022/01/24 04:36:27;;;;;;;59.72;32.55;;;5.80;99.90;;;;;;5092267;28;20065;-73
2022/01/24 04:38:53;;;;;;;67.05;35.05;;;5.80;99.90;;;;;;5092089;28;20063;-72
2022/01/24 04:41:23;;;;;;;67.43;33.10;;;5.70;99.90;;;;;;5092062;28;20052;-74
2022/01/24 04:43:55;;;;;;;71.75;33.42;;;5.70;99.90;;;;;;5092356;28;20122;-73
2022/01/24 04:51:56;;;;;;;62.95;31.52;;;5.70;99.90;;;;;;5092951;28;20039;-74
2022/01/24 04:57:03;;;;;;;57.65;31.95;;;5.70;99.90;;;;;;5094076;28;20516;-73
2022/01/24 04:59:28;;;;;;;71.10;34.50;;;5.60;99.90;;;;;;5095199;28;20624;-73
2022/01/24 05:01:54;;;;;;;66.13;32.95;;;5.60;99.90;;;;;;5095841;28;20016;-73
2022/01/24 05:04:21;;;;;;;69.80;33.83;;;5.70;99.90;;;;;;5095866;28;20126;-73
2022/01/24 05:06:46;;;;;;;65.28;32.83;;;5.60;99.90;;;;;;5096487;28;20104;-73
2022/01/24 05:09:12;;;;;;;60.58;32.60;;;5.60;99.90;;;;;;5096205;28;20116;-73
2022/01/24 05:11:47;;;;;;;64.47;35.20;;;5.60;99.90;;;;;;5095627;28;20030;-73
2022/01/24 05:25:08;;;;;;;64.60;33.15;;;5.60;99.90;;;;;;5095096;28;20888;-74
2022/01/24 05:27:34;;;;;;;68.32;34.60;;;5.60;99.90;;;;;;5095153;28;20135;-73
2022/01/24 05:30:00;;;;;;;63.75;33.20;;;5.60;99.90;;;;;;5095492;28;20028;-73
2022/01/24 05:32:25;;;;;;;62.90;33.05;;;5.60;99.90;;;;;;5094896;28;20123;-73
2022/01/24 05:34:51;;;;;;;60.97;32.35;;;5.50;99.90;;;;;;5094767;28;20052;-73
2022/01/24 05:37:17;;;;;;;64.68;33.20;;;5.50;99.90;;;;;;5095268;28;20028;-72
2022/01/24 05:39:43;;;;;;;61.47;33.47;;;5.50;99.90;;;;;;5095170;28;20074;-72
2022/01/24 05:42:08;;;;;;;59.50;33.05;;;5.50;99.90;;;;;;5094594;28;20045;-74
2022/01/24 05:44:34;;;;;;;57.45;31.27;;;5.50;99.90;;;;;;5095174;28;20078;-75
2022/01/24 05:46:59;;;;;;;56.35;29.50;;;5.50;99.90;;;;;;5095111;28;20020;-74
2022/01/24 05:49:25;;;;;;;61.15;32.70;;;5.40;99.90;;;;;;5094184;28;20031;-74
2022/01/24 05:51:50;;;;;;;52.22;30.33;;;5.50;99.90;;;;;;5095294;28;20030;-74
2022/01/24 05:54:16;;;;;;;52.42;30.23;;;5.40;99.90;;;;;;5095016;28;20028;-73
2022/01/24 05:56:41;;;;;;;50.55;29.27;;;5.50;99.90;;;;;;5094749;28;20023;-74
2022/01/24 05:59:07;;;;;;;51.53;27.83;;;5.50;99.90;;;;;;5094918;28;20491;-74
2022/01/24 06:01:32;;;;;;;48.33;25.25;;;5.50;99.90;;;;;;5095367;28;20019;-73
2022/01/24 06:03:58;;;;;;;47.85;26.50;;;5.40;99.90;;;;;;5094470;28;20032;-73
2022/01/24 06:06:23;;;;;;;44.70;25.48;;;5.50;99.90;;;;;;5094776;28;20024;-73
2022/01/24 06:08:49;;;;;;;45.25;26.33;;;5.50;99.90;;;;;;5093598;28;20026;-73
2022/01/24 06:11:14;;;;;;;47.35;26.38;;;5.60;99.90;;;;;;5093577;28;20016;-73
2022/01/24 06:13:41;;;;;;;48.58;26.08;;;5.60;99.90;;;;;;5094822;28;20110;-73
2022/01/24 06:16:07;;;;;;;48.47;26.90;;;5.50;99.90;;;;;;5094318;28;20460;-73
2022/01/24 06:18:32;;;;;;;48.15;27.55;;;5.50;99.90;;;;;;5095002;28;20024;-73
2022/01/24 06:20:58;;;;;;;50.08;26.80;;;5.50;99.90;;;;;;5094971;28;20349;-73
2022/01/24 06:23:25;;;;;;;50.63;26.90;;;5.50;99.90;;;;;;5094172;28;20064;-74
2022/01/24 06:25:51;;;;;;;46.08;27.00;;;5.50;99.90;;;;;;5093849;28;20035;-72
2022/01/24 06:28:16;;;;;;;47.47;26.58;;;5.50;99.90;;;;;;5094977;28;20024;-72
2022/01/24 06:30:42;;;;;;;41.17;24.08;;;5.50;99.90;;;;;;5094630;28;20409;-73
2022/01/24 06:33:08;;;;;;;40.33;24.73;;;5.50;99.90;;;;;;5093832;28;20024;-74
2022/01/24 06:35:34;;;;;;;44.50;25.52;;;5.40;99.90;;;;;;5094336;28;20016;-73
2022/01/24 06:38:00;;;;;;;48.92;25.83;;;5.40;99.90;;;;;;5093941;28;20086;-73
2022/01/24 06:40:25;;;;;;;42.10;23.92;;;5.50;99.90;;;;;;5093957;28;20040;-74
2022/01/24 06:42:54;;;;;;;47.00;25.23;;;5.50;99.90;;;;;;5094314;28;20390;-73
2022/01/24 06:45:20;;;;;;;46.08;26.05;;;5.50;99.90;;;;;;5093085;28;20020;-73
2022/01/24 06:47:45;;;;;;;42.15;25.42;;;5.50;99.90;;;;;;5094480;28;20361;-73
2022/01/24 06:50:11;;;;;;;44.40;24.85;;;5.50;99.90;;;;;;5093925;28;20087;-74
2022/01/24 06:52:37;;;;;;;42.05;23.80;;;5.50;99.90;;;;;;5093649;28;20024;-74
2022/01/24 06:55:03;;;;;;;44.55;25.13;;;5.50;99.90;;;;;;5093271;28;20043;-74
2022/01/24 06:57:29;;;;;;;43.95;25.00;;;5.50;99.90;;;;;;5093619;28;20024;-73
2022/01/24 06:59:54;;;;;;;47.20;26.23;;;5.50;99.90;;;;;;5088368;28;20027;-73
2022/01/24 07:02:20;;;;;;;41.92;25.27;;;5.50;99.90;;;;;;5075538;28;20021;-73
2022/01/24 07:04:46;;;;;;;43.55;24.45;;;5.50;99.90;;;;;;5072905;28;20029;-74
2022/01/24 07:07:13;;;;;;;49.13;28.17;;;5.50;99.90;;;;;;5071981;28;20160;-73
2022/01/24 07:09:41;;;;;;;48.15;26.98;;;5.50;99.90;;;;;;5073139;28;20059;-73
2022/01/24 07:12:07;;;;;;;46.35;26.38;;;5.50;99.90;;;;;;5072376;28;20029;-73
2022/01/24 07:14:34;;;;;;;47.00;26.88;;;5.50;99.90;;;;;;5072345;28;20078;-72
2022/01/24 07:17:11;;;;;;;48.20;28.15;;;5.50;99.90;;;;;;5072578;28;20469;-74
2022/01/24 07:19:37;;;;;;;45.80;27.33;;;5.50;99.90;;;;;;5073333;28;20151;-73
2022/01/24 07:22:04;;;;;;;48.03;27.05;;;5.50;99.90;;;;;;5083810;28;20099;-76
2022/01/24 07:24:31;;;;;;;47.60;27.88;;;5.50;99.90;;;;;;5092694;28;20036;-72
2022/01/24 07:26:57;;;;;;;47.67;26.98;;;5.50;99.90;;;;;;5091842;28;20063;-73
2022/01/24 07:29:23;;;;;;;42.40;26.30;;;5.50;99.90;;;;;;5091685;28;20047;-73
2022/01/24 07:31:49;;;;;;;47.75;27.50;;;5.50;99.90;;;;;;5093886;28;20044;-73
2022/01/24 07:34:15;;;;;;;49.22;27.90;;;5.40;99.90;;;;;;5092026;28;20048;-73
2022/01/24 07:36:41;;;;;;;50.45;26.95;;;5.50;99.90;;;;;;5089134;28;20049;-72
2022/01/24 07:39:07;;;;;;;52.22;27.80;;;5.50;99.90;;;;;;5082218;28;20035;-73
2022/01/24 07:41:41;;;;;;;50.40;29.50;;;5.50;99.90;;;;;;5097562;28;20020;-73
2022/01/24 07:44:06;;;;;;;49.33;28.27;;;5.50;99.90;;;;;;5072812;28;20074;-73
2022/01/24 07:46:33;;;;;;;50.47;28.02;;;5.50;99.90;;;;;;5073764;28;20097;-73
2022/01/24 07:49:01;;;;;;;47.72;27.65;;;5.50;99.90;;;;;;5071173;28;20113;-73
2022/01/24 07:51:27;;;;;;;52.35;28.63;;;5.50;99.90;;;;;;5071822;28;20473;-73
2022/01/24 07:53:52;;;;;;;51.92;29.75;;;5.50;99.90;;;;;;5079865;28;20056;-74
2022/01/24 07:56:18;;;;;;;56.58;30.33;;;5.50;99.90;;;;;;5078328;28;20093;-73
2022/01/24 07:58:44;;;;;;;55.10;30.08;;;5.60;99.90;;;;;;5092098;28;20111;-73
2022/01/24 08:01:11;;;;;;;54.08;28.65;;;5.50;99.90;;;;;;5091841;28;20023;-73
2022/01/24 08:03:36;;;;;;;53.33;29.80;;;5.50;99.90;;;;;;5088484;28;20032;-73
2022/01/24 08:06:02;;;;;;;54.10;29.35;;;5.60;99.90;;;;;;5092124;28;20508;-73
2022/01/24 08:08:28;;;;;;;49.92;28.30;;;5.50;99.90;;;;;;5091576;28;20078;-73
2022/01/24 08:10:55;;;;;;;51.40;28.35;;;5.50;99.90;;;;;;5073994;28;20119;-74
2022/01/24 08:13:20;;;;;;;49.17;27.77;;;5.50;99.90;;;;;;5091103;28;20105;-74
2022/01/24 08:15:46;;;;;;;52.17;28.27;;;5.50;99.90;;;;;;5091138;28;20463;-74
2022/01/24 08:18:14;;;;;;;55.53;30.60;;;5.60;99.90;;;;;;5090737;28;20020;-75
2022/01/24 08:20:41;;;;;;;62.00;33.50;;;5.60;99.90;;;;;;5074547;28;20052;-77
2022/01/24 08:23:19;;;;;;;62.35;32.47;;;5.60;99.90;;;;;;5087233;28;20036;-74
2022/01/24 08:25:51;;;;;;;56.92;29.98;;;5.60;99.90;;;;;;5085487;28;20553;-76
2022/01/24 08:28:23;;;;;;;49.53;28.00;;;5.60;99.90;;;;;;5077120;28;20047;-74
2022/01/24 08:30:48;;;;;;;46.05;27.65;;;5.70;99.90;;;;;;5073056;28;20078;-75
2022/01/24 08:33:14;;;;;;;50.15;27.35;;;5.70;99.90;;;;;;5078536;28;20028;-76
2022/01/24 08:35:40;;;;;;;51.65;29.30;;;5.70;99.90;;;;;;5090306;28;20035;-75
2022/01/24 08:38:05;;;;;;;53.30;29.52;;;5.70;99.90;;;;;;5081916;28;20091;-75
2022/01/24 08:40:33;;;;;;;52.50;30.40;;;5.70;99.90;;;;;;5079102;28;20451;-75
2022/01/24 08:43:04;;;;;;;52.97;29.50;;;5.70;99.90;;;;;;5078700;28;20044;-77
2022/01/24 08:48:08;;;;;;;47.20;27.60;;;5.70;99.90;;;;;;5078692;28;20070;-75
2022/01/24 08:50:34;;;;;;;49.60;26.77;;;5.80;99.90;;;;;;5078909;28;20024;-76
2022/01/24 08:53:00;;;;;;;46.72;26.48;;;5.80;99.90;;;;;;5078809;28;20071;-79
2022/01/24 08:55:28;;;;;;;47.65;27.58;;;5.80;99.90;;;;;;5078507;28;20170;-76
2022/01/24 08:57:55;;;;;;;44.00;26.30;;;5.80;99.90;;;;;;5078193;28;20028;-76
2022/01/24 09:00:20;;;;;;;49.97;27.90;;;5.70;99.90;;;;;;5095841;28;20023;-76
2022/01/24 09:02:46;;;;;;;45.80;27.17;;;5.80;99.90;;;;;;5098287;28;20024;-76
2022/01/24 09:05:11;;;;;;;45.35;26.25;;;5.80;99.90;;;;;;5098071;28;20112;-74
2022/01/24 09:07:37;;;;;;;43.30;25.63;;;5.80;99.90;;;;;;5098360;28;20080;-75
2022/01/24 09:10:07;;;;;;;43.97;25.52;;;5.80;99.90;;;;;;5098899;28;20055;-75
2022/01/24 09:12:33;;;;;;;50.35;27.67;;;5.90;99.90;;;;;;5098209;28;20070;-74
2022/01/24 09:14:58;;;;;;;48.83;26.17;;;5.90;99.90;;;;;;5099082;28;20052;-74
2022/01/24 09:17:24;;;;;;;47.88;28.10;;;5.90;99.90;;;;;;5098833;28;20035;-74
2022/01/24 09:19:50;;;;;;;44.90;25.88;;;5.90;99.90;;;;;;5098211;27;20434;-74
2022/01/24 09:22:15;;;;;;;42.63;25.05;;;5.90;99.90;;;;;;5088156;28;20039;-74
2022/01/24 09:24:41;;;;;;;49.80;27.13;;;5.90;99.90;;;;;;5079830;28;20040;-74
2022/01/24 09:27:07;;;;;;;45.95;26.13;;;5.90;99.90;;;;;;5079672;28;20082;-75
2022/01/24 09:29:33;;;;;;;49.17;25.25;;;6.00;99.90;;;;;;5079540;28;20032;-75
2022/01/24 09:32:02;;;;;;;42.55;23.88;;;6.00;99.90;;;;;;5094144;28;20471;-74
2022/01/24 09:34:28;;;;;;;43.78;25.13;;;6.00;99.90;;;;;;5096363;28;20096;-75
2022/01/24 09:36:53;;;;;;;45.53;25.92;;;6.00;99.90;;;;;;5096325;28;20105;-75
2022/01/24 09:39:19;;;;;;;45.55;25.13;;;6.00;99.90;;;;;;5097220;28;20410;-75
2022/01/24 09:41:45;;;;;;;41.33;23.88;;;6.00;99.90;;;;;;5096934;28;20028;-76
2022/01/24 09:44:11;;;;;;;42.05;23.70;;;6.00;99.90;;;;;;5092692;28;20487;-75
2022/01/24 09:46:38;;;;;;;45.25;25.55;;;6.00;99.90;;;;;;5093794;28;20043;-74
2022/01/24 09:49:04;;;;;;;40.10;24.00;;;6.00;99.90;;;;;;5092316;28;20028;-75
2022/01/24 09:51:30;;;;;;;40.70;23.83;;;6.00;99.90;;;;;;5093347;28;20024;-74
2022/01/24 09:53:57;;;;;;;40.15;24.35;;;6.00;99.90;;;;;;5093029;28;20032;-75
2022/01/24 09:56:22;;;;;;;41.30;23.45;;;6.10;99.90;;;;;;5092702;28;20035;-74
2022/01/24 09:58:48;;;;;;;41.80;24.25;;;6.10;99.90;;;;;;5093498;28;20024;-74
2022/01/24 10:01:15;;;;;;;38.60;22.63;;;6.10;99.90;;;;;;5092603;28;20044;-74
2022/01/24 10:04:16;;;;;;;36.45;21.67;;;6.10;99.90;;;;;;5092886;28;20067;-75
2022/01/24 10:07:08;;;;;;;40.65;23.50;;;6.10;99.90;;;;;;5093109;28;20047;-74
2022/01/24 10:09:49;;;;;;;41.22;24.33;;;6.10;99.90;;;;;;5093427;28;20065;-75
2022/01/24 10:12:27;;;;;;;40.95;23.23;;;6.20;99.90;;;;;;5094513;28;20028;-75
2022/01/24 10:17:40;;;;;;;38.97;22.40;;;6.20;99.90;;;;;;5093014;28;20039;-75
2022/01/24 10:20:24;;;;;;;41.03;24.75;;;6.20;99.90;;;;;;5093018;28;20111;-75
2022/01/24 10:23:24;;;;;;;47.67;24.73;;;6.20;99.90;;;;;;5094344;28;20502;-75
2022/01/24 10:26:03;;;;;;;35.13;21.88;;;6.20;99.90;;;;;;5086465;28;20548;-75
2022/01/24 10:28:43;;;;;;;41.10;23.52;;;6.20;99.90;;;;;;5093664;28;20034;-76
2022/01/24 10:31:24;;;;;;;37.75;23.13;;;6.30;99.90;;;;;;5094153;28;20020;-74
2022/01/24 10:33:51;;;;;;;41.17;24.70;;;6.30;99.90;;;;;;5093172;28;20128;-76
2022/01/24 10:36:43;;;;;;;37.75;22.88;;;6.30;99.90;;;;;;5092459;28;20048;-76
2022/01/24 10:39:12;;;;;;;41.08;24.17;;;6.30;99.90;;;;;;5092614;28;20067;-75
2022/01/24 10:41:55;;;;;;;40.58;25.48;;;6.30;99.90;;;;;;5095164;28;20028;-74
2022/01/24 10:44:35;;;;;;;41.78;25.05;;;6.40;99.90;;;;;;5090518;28;20059;-77
2022/01/24 10:47:12;;;;;;;42.88;25.52;;;6.40;99.90;;;;;;5092995;28;20043;-76
2022/01/24 10:49:38;;;;;;;44.00;25.95;;;6.40;99.90;;;;;;5092683;28;20020;-76
2022/01/24 10:52:13;;;;;;;45.45;26.55;;;6.40;99.90;;;;;;5091476;28;20601;-76
2022/01/24 10:54:39;;;;;;;42.53;24.05;;;6.40;99.90;;;;;;5091357;28;20036;-76
2022/01/24 10:57:04;;;;;;;40.05;23.83;;;6.40;99.90;;;;;;5092838;28;20030;-75
2022/01/24 10:59:30;;;;;;;40.40;23.20;;;6.40;99.90;;;;;;5092109;28;20380;-74
2022/01/24 11:01:59;;;;;;;41.28;25.88;;;6.50;99.90;;;;;;5091918;28;20028;-77
2022/01/24 11:04:26;;;;;;;42.63;24.70;;;6.40;99.90;;;;;;5091621;28;20055;-75
2022/01/24 11:06:55;;;;;;;41.75;24.75;;;6.40;99.90;;;;;;5090994;28;20052;-76
2022/01/24 11:09:22;;;;;;;40.40;22.98;;;6.50;99.90;;;;;;5091732;28;20086;-76
2022/01/24 11:11:51;;;;;;;43.63;25.48;;;6.50;99.90;;;;;;5091070;28;20021;-75
2022/01/24 11:14:19;;;;;;;43.55;25.90;;;6.50;99.90;;;;;;5090843;28;20310;-77
2022/01/24 11:16:46;;;;;;;39.55;22.50;;;6.60;99.90;;;;;;5091602;28;20024;-77
2022/01/24 11:19:19;;;;;;;34.92;21.50;;;6.50;99.90;;;;;;5088274;28;20028;-77
2022/01/24 11:21:45;;;;;;;37.38;22.83;;;6.60;99.90;;;;;;5091332;28;20035;-77
2022/01/24 11:24:19;;;;;;;36.03;23.13;;;6.50;99.90;;;;;;5091220;28;20598;-76
2022/01/24 11:26:46;;;;;;;37.95;22.02;;;6.60;99.90;;;;;;5089951;28;20016;-76
2022/01/24 11:29:13;;;;;;;33.35;21.95;;;6.60;99.90;;;;;;5091316;28;20387;-75
2022/01/24 11:31:50;;;;;;;37.33;22.50;;;6.60;99.90;;;;;;5090951;28;20494;-76
2022/01/24 11:34:30;;;;;;;35.85;21.48;;;6.70;99.90;;;;;;5089078;28;20032;-76
2022/01/24 11:36:56;;;;;;;33.33;21.27;;;6.60;99.90;;;;;;5089785;28;20012;-77
2022/01/24 11:39:24;;;;;;;35.53;21.15;;;6.70;99.90;;;;;;5091159;28;20031;-76
2022/01/24 11:41:50;;;;;;;34.90;20.80;;;6.70;99.90;;;;;;5090907;28;20031;-75
2022/01/24 11:44:18;;;;;;;35.75;21.48;;;6.70;99.90;;;;;;5090489;28;20036;-75
2022/01/24 11:46:51;;;;;;;34.72;22.00;;;6.80;99.90;;;;;;5092018;28;20483;-75
2022/01/24 11:49:35;;;;;;;37.70;22.50;;;6.80;99.90;;;;;;5091161;28;20152;-75
2022/01/24 11:52:10;;;;;;;37.75;23.25;;;6.90;99.90;;;;;;5091572;28;20382;-76
2022/01/24 11:54:47;;;;;;;37.05;22.83;;;6.90;99.90;;;;;;5080071;28;20036;-76
2022/01/24 11:57:18;;;;;;;35.35;21.75;;;6.90;99.90;;;;;;5080762;28;20036;-74
2022/01/24 11:59:45;;;;;;;33.38;21.40;;;6.90;99.90;;;;;;5090884;28;20032;-75
2022/01/24 12:02:15;;;;;;;31.77;20.88;;;6.90;99.90;;;;;;5090438;28;20371;-76
2022/01/24 12:05:08;;;;;;;32.00;19.77;;;6.90;99.90;;;;;;5090986;28;20039;-74
2022/01/24 12:07:44;;;;;;;34.20;20.67;;;6.90;99.90;;;;;;5087609;28;20048;-76
2022/01/24 12:10:27;;;;;;;33.35;21.50;;;6.90;99.90;;;;;;5090678;28;20020;-77
2022/01/24 12:13:02;;;;;;;33.50;22.25;;;7.80;99.90;;;;;;5091334;28;20020;-76
2022/01/24 12:15:37;;;;;;;37.08;22.30;;;6.90;99.90;;;;;;5090053;28;20032;-75
2022/01/24 12:18:09;;;;;;;33.78;21.92;;;6.80;99.90;;;;;;5092046;28;20034;-76
2022/01/24 12:20:34;;;;;;;34.70;21.88;;;6.80;99.90;;;;;;5087931;28;20023;-75
2022/01/24 12:23:24;;;;;;;36.53;21.83;;;6.80;99.90;;;;;;5090334;28;20759;-77
2022/01/24 12:26:08;;;;;;;38.00;22.23;;;6.70;99.90;;;;;;5089585;28;20551;-77
2022/01/24 12:28:42;;;;;;;35.17;21.55;;;6.70;99.90;;;;;;5089140;28;20032;-75
2022/01/24 12:31:22;;;;;;;35.72;22.30;;;6.70;99.90;;;;;;5089004;28;20390;-76
2022/01/24 12:34:04;;;;;;;32.33;21.23;;;6.70;99.90;;;;;;5077250;28;20117;-76
2022/01/24 12:36:51;;;;;;;34.97;21.15;;;6.70;99.90;;;;;;5088452;28;20129;-76
2022/01/24 12:39:19;;;;;;;34.65;21.30;;;6.80;99.90;;;;;;5088599;28;20032;-76
2022/01/24 12:41:51;;;;;;;36.78;22.85;;;6.70;99.90;;;;;;5090382;28;20077;-77
2022/01/24 12:47:11;;;;;;;38.55;22.90;;;6.70;99.90;;;;;;5084003;28;20025;-77
2022/01/24 12:49:37;;;;;;;37.25;22.08;;;6.60;99.90;;;;;;5079295;28;20027;-76
2022/01/24 12:52:06;;;;;;;32.60;21.25;;;6.60;99.90;;;;;;5089875;28;20027;-76
2022/01/24 12:54:36;;;;;;;33.95;22.60;;;6.70;99.90;;;;;;5092239;28;20032;-76
2022/01/24 12:57:05;;;;;;;40.05;23.15;;;6.70;99.90;;;;;;5088029;28;20149;-76
2022/01/24 12:59:31;;;;;;;34.63;21.55;;;6.70;99.90;;;;;;5090504;28;20043;-76
2022/01/24 13:02:01;;;;;;;36.97;21.92;;;6.60;99.90;;;;;;5090933;28;20031;-76
2022/01/24 13:04:35;;;;;;;36.03;21.15;;;6.60;99.90;;;;;;5090051;28;20040;-76
2022/01/24 13:07:01;;;;;;;36.45;21.88;;;6.60;99.90;;;;;;5091505;28;20055;-75
2022/01/24 13:09:27;;;;;;;32.75;20.35;;;6.60;99.90;;;;;;5091253;28;20035;-76
2022/01/24 13:11:54;;;;;;;35.70;22.38;;;6.70;99.90;;;;;;5090618;28;20035;-75
2022/01/24 13:14:30;;;;;;;31.75;21.17;;;6.70;99.90;;;;;;5090369;28;20035;-76
2022/01/24 13:22:48;;;;;;;33.10;21.30;;;6.80;99.90;;;;;;5093282;28;20135;-77
2022/01/24 13:25:16;;;;;;;33.05;20.75;;;6.80;99.90;;;;;;5091727;28;20047;-75
2022/01/24 13:27:49;;;;;;;33.35;21.67;;;6.90;99.90;;;;;;5090148;28;20495;-75
2022/01/24 13:30:24;;;;;;;31.90;21.40;;;6.80;99.90;;;;;;5091200;28;20063;-77
2022/01/24 13:32:56;;;;;;;34.72;22.33;;;6.80;99.90;;;;;;5089485;28;20091;-77
2022/01/24 13:35:33;;;;;;;34.92;22.08;;;6.80;99.90;;;;;;5091324;28;20054;-76
2022/01/24 13:38:08;;;;;;;30.38;19.80;;;6.80;99.90;;;;;;5086539;28;20532;-76
2022/01/24 13:40:35;;;;;;;34.35;22.13;;;6.70;99.90;;;;;;5092583;28;20028;-76
2022/01/24 13:43:02;;;;;;;36.90;22.10;;;6.70;99.90;;;;;;5093893;28;20036;-76
2022/01/24 13:45:40;;;;;;;35.97;21.80;;;6.60;99.90;;;;;;5085876;28;20024;-77
2022/01/24 13:48:16;;;;;;;36.97;22.02;;;6.60;99.90;;;;;;5091360;28;20508;-76
2022/01/24 13:50:57;;;;;;;34.58;19.85;;;6.50;99.90;;;;;;5094291;28;20032;-76
2022/01/24 13:53:51;;;;;;;38.42;23.23;;;6.40;99.90;;;;;;5094211;28;20044;-77
2022/01/24 13:56:26;;;;;;;34.80;21.60;;;6.30;99.90;;;;;;5088666;28;20569;-75
2022/01/24 13:59:19;;;;;;;32.00;21.45;;;6.30;99.90;;;;;;5090049;28;20020;-76
2022/01/24 14:02:03;;;;;;;31.45;20.25;;;6.40;99.90;;;;;;5084905;28;20140;-76
2022/01/24 14:04:49;;;;;;;33.78;21.95;;;6.30;99.90;;;;;;5093330;28;20035;-76
2022/01/24 14:07:19;;;;;;;33.78;21.80;;;6.30;99.90;;;;;;5094347;28;20044;-76
2022/01/24 14:09:52;;;;;;;34.88;21.38;;;6.30;99.90;;;;;;5093334;28;20020;-77
2022/01/24 14:12:20;;;;;;;36.25;21.83;;;6.40;99.90;;;;;;5095145;28;20036;-76
2022/01/24 14:14:58;;;;;;;34.35;21.92;;;6.40;99.90;;;;;;5077976;28;20036;-76
2022/01/24 14:17:35;;;;;;;33.00;20.38;;;6.40;99.90;;;;;;5073754;28;20081;-76
2022/01/24 14:20:08;;;;;;;32.10;20.85;;;6.40;99.90;;;;;;5074691;28;20399;-76
2022/01/24 14:22:51;;;;;;;27.17;18.73;;;6.30;99.90;;;;;;5073390;28;20017;-75
2022/01/24 14:25:29;;;;;;;29.58;19.38;;;6.20;99.90;;;;;;5076484;28;20063;-74
2022/01/24 14:28:09;;;;;;;32.22;19.45;;;6.20;99.90;;;;;;5074977;28;20025;-78
2022/01/24 14:30:43;;;;;;;31.27;19.63;;;6.10;99.90;;;;;;5084284;28;20035;-78
2022/01/24 14:33:18;;;;;;;29.55;18.58;;;6.00;99.90;;;;;;5087804;28;20306;-77
2022/01/24 14:36:02;;;;;;;33.35;20.45;;;6.10;99.90;;;;;;5086015;28;20496;-78
2022/01/24 14:38:28;;;;;;;33.75;19.42;;;6.00;99.90;;;;;;5090161;28;20523;-78
2022/01/24 14:40:56;;;;;;;32.33;19.25;;;6.00;99.90;;;;;;5092991;28;20119;-77
2022/01/24 14:46:17;;;;;;;34.38;19.40;;;6.00;99.90;;;;;;5085301;28;20161;-78
2022/01/24 14:48:56;;;;;;;33.20;19.02;;;6.00;99.90;;;;;;5084968;28;20503;-75